sensor_id;sensor_type;location;lat;lon;timestamp;temperature;humidity
42479;DHT22;28110;47.080;9.476;2024-01-30T00:01:53;8.00;99.50
42479;DHT22;28110;47.080;9.476;2024-01-30T00:04:18;7.90;99.50
42479;DHT22;28110;47.080;9.476;2024-01-30T00:06:44;7.90;99.80
42479;DHT22;28110;47.080;9.476;2024-01-30T00:09:10;7.70;99.90
42479;DHT22;28110;47.080;9.476;2024-01-30T00:11:39;7.60;99.90
42479;DHT22;28110;47.080;9.476;2024-01-30T00:14:05;7.60;99.90
42479;DHT22;28110;47.080;9.476;2024-01-30T00:16:30;7.60;99.90
42479;DHT22;28110;47.080;9.476;2024-01-30T00:18:56;7.60;99.70
42479;DHT22;28110;47.080;9.476;2024-01-30T00:21:22;7.60;99.90
42479;DHT22;28110;47.080;9.476;2024-01-30T00:23:48;7.60;99.60
42479;DHT22;28110;47.080;9.476;2024-01-30T00:26:14;7.60;99.80
42479;DHT22;28110;47.080;9.476;2024-01-30T00:28:43;7.70;99.60
42479;DHT22;28110;47.080;9.476;2024-01-30T00:31:09;7.70;99.20
42479;DHT22;28110;47.080;9.476;2024-01-30T00:33:41;7.70;99.30
42479;DHT22;28110;47.080;9.476;2024-01-30T00:36:08;7.80;98.50
42479;DHT22;28110;47.080;9.476;2024-01-30T00:38:33;7.80;98.60
42479;DHT22;28110;47.080;9.476;2024-01-30T00:40:59;7.70;98.60
42479;DHT22;28110;47.080;9.476;2024-01-30T00:43:25;7.60;99.70
42479;DHT22;28110;47.080;9.476;2024-01-30T00:45:51;7.50;99.90
42479;DHT22;28110;47.080;9.476;2024-01-30T00:48:20;7.40;99.90
42479;DHT22;28110;47.080;9.476;2024-01-30T00:50:45;7.40;99.70
42479;DHT22;28110;47.080;9.476;2024-01-30T00:53:11;7.50;99.60
42479;DHT22;28110;47.080;9.476;2024-01-30T00:55:36;7.60;99.50
42479;DHT22;28110;47.080;9.476;2024-01-30T00:58:02;7.60;99.30
42479;DHT22;28110;47.080;9.476;2024-01-30T01:00:28;7.50;99.40
42479;DHT22;28110;47.080;9.476;2024-01-30T01:03:01;7.50;99.70
42479;DHT22;28110;47.080;9.476;2024-01-30T01:05:27;7.40;99.70
42479;DHT22;28110;47.080;9.476;2024-01-30T01:07:52;7.40;99.70
42479;DHT22;28110;47.080;9.476;2024-01-30T01:10:18;7.30;99.90
42479;DHT22;28110;47.080;9.476;2024-01-30T01:12:44;7.20;99.90
42479;DHT22;28110;47.080;9.476;2024-01-30T01:15:10;7.10;99.90
42479;DHT22;28110;47.080;9.476;2024-01-30T01:17:36;7.00;99.90
42479;DHT22;28110;47.080;9.476;2024-01-30T01:20:03;6.80;99.90
42479;DHT22;28110;47.080;9.476;2024-01-30T01:22:30;6.70;99.90
42479;DHT22;28110;47.080;9.476;2024-01-30T01:24:56;6.60;99.90
42479;DHT22;28110;47.080;9.476;2024-01-30T01:27:22;6.50;99.90
42479;DHT22;28110;47.080;9.476;2024-01-30T01:29:47;6.40;99.90
42479;DHT22;28110;47.080;9.476;2024-01-30T01:32:13;6.30;99.90
42479;DHT22;28110;47.080;9.476;2024-01-30T01:34:38;6.20;99.90
42479;DHT22;28110;47.080;9.476;2024-01-30T01:37:04;6.40;99.90
42479;DHT22;28110;47.080;9.476;2024-01-30T01:39:29;6.60;99.90
42479;DHT22;28110;47.080;9.476;2024-01-30T01:41:55;6.70;99.90
42479;DHT22;28110;47.080;9.476;2024-01-30T01:44:20;6.80;99.90
42479;DHT22;28110;47.080;9.476;2024-01-30T01:46:46;6.90;99.90
42479;DHT22;28110;47.080;9.476;2024-01-30T01:49:13;6.90;99.90
42479;DHT22;28110;47.080;9.476;2024-01-30T01:51:39;7.00;99.90
42479;DHT22;28110;47.080;9.476;2024-01-30T01:54:06;6.90;99.90
42479;DHT22;28110;47.080;9.476;2024-01-30T01:56:33;6.90;99.90
42479;DHT22;28110;47.080;9.476;2024-01-30T01:59:04;6.80;99.90
42479;DHT22;28110;47.080;9.476;2024-01-30T02:01:32;6.70;99.90
42479;DHT22;28110;47.080;9.476;2024-01-30T02:04:01;6.60;99.90
42479;DHT22;28110;47.080;9.476;2024-01-30T02:06:27;6.50;99.90
42479;DHT22;28110;47.080;9.476;2024-01-30T02:08:54;6.50;99.90
42479;DHT22;28110;47.080;9.476;2024-01-30T02:11:22;6.50;99.90
42479;DHT22;28110;47.080;9.476;2024-01-30T02:13:49;6.50;99.90
42479;DHT22;28110;47.080;9.476;2024-01-30T02:16:14;6.80;99.90
42479;DHT22;28110;47.080;9.476;2024-01-30T02:18:40;6.80;99.90
42479;DHT22;28110;47.080;9.476;2024-01-30T02:21:13;6.90;99.90
42479;DHT22;28110;47.080;9.476;2024-01-30T02:23:39;7.00;99.70
42479;DHT22;28110;47.080;9.476;2024-01-30T02:26:06;7.20;99.40
42479;DHT22;28110;47.080;9.476;2024-01-30T02:28:31;7.20;99.40
42479;DHT22;28110;47.080;9.476;2024-01-30T02:30:57;7.30;99.20
42479;DHT22;28110;47.080;9.476;2024-01-30T02:33:22;7.20;99.40
42479;DHT22;28110;47.080;9.476;2024-01-30T02:35:48;7.10;99.90
42479;DHT22;28110;47.080;9.476;2024-01-30T02:38:15;6.90;99.90
42479;DHT22;28110;47.080;9.476;2024-01-30T02:40:41;6.80;99.90
42479;DHT22;28110;47.080;9.476;2024-01-30T02:43:06;6.70;99.90
42479;DHT22;28110;47.080;9.476;2024-01-30T02:45:32;6.50;99.90
42479;DHT22;28110;47.080;9.476;2024-01-30T02:47:57;6.40;99.90
42479;DHT22;28110;47.080;9.476;2024-01-30T02:50:23;6.30;99.90
42479;DHT22;28110;47.080;9.476;2024-01-30T02:52:49;6.20;99.90
42479;DHT22;28110;47.080;9.476;2024-01-30T02:55:14;6.10;99.90
42479;DHT22;28110;47.080;9.476;2024-01-30T02:57:42;6.00;99.90
42479;DHT22;28110;47.080;9.476;2024-01-30T03:00:08;6.10;99.90
42479;DHT22;28110;47.080;9.476;2024-01-30T03:02:35;6.10;99.90
42479;DHT22;28110;47.080;9.476;2024-01-30T03:05:00;6.00;99.90
42479;DHT22;28110;47.080;9.476;2024-01-30T03:07:26;5.90;99.90
42479;DHT22;28110;47.080;9.476;2024-01-30T03:09:52;5.70;99.90
42479;DHT22;28110;47.080;9.476;2024-01-30T03:12:17;5.70;99.90
42479;DHT22;28110;47.080;9.476;2024-01-30T03:14:43;5.60;99.90
42479;DHT22;28110;47.080;9.476;2024-01-30T03:17:09;5.50;99.90
42479;DHT22;28110;47.080;9.476;2024-01-30T03:19:35;5.50;99.90
42479;DHT22;28110;47.080;9.476;2024-01-30T03:22:01;5.50;99.90
42479;DHT22;28110;47.080;9.476;2024-01-30T03:24:26;5.40;99.90
42479;DHT22;28110;47.080;9.476;2024-01-30T03:26:52;5.40;99.90
42479;DHT22;28110;47.080;9.476;2024-01-30T03:29:18;5.40;99.90
42479;DHT22;28110;47.080;9.476;2024-01-30T03:31:44;5.40;99.90
42479;DHT22;28110;47.080;9.476;2024-01-30T03:34:09;5.30;99.90
42479;DHT22;28110;47.080;9.476;2024-01-30T03:36:35;5.30;99.90
42479;DHT22;28110;47.080;9.476;2024-01-30T03:39:01;5.30;99.90
42479;DHT22;28110;47.080;9.476;2024-01-30T03:41:27;5.20;99.90
42479;DHT22;28110;47.080;9.476;2024-01-30T03:43:52;5.20;99.90
42479;DHT22;28110;47.080;9.476;2024-01-30T03:46:18;5.20;99.90
42479;DHT22;28110;47.080;9.476;2024-01-30T03:48:44;5.50;99.90
42479;DHT22;28110;47.080;9.476;2024-01-30T03:51:10;5.90;99.90
42479;DHT22;28110;47.080;9.476;2024-01-30T03:53:40;6.10;99.90
42479;DHT22;28110;47.080;9.476;2024-01-30T03:56:06;6.30;99.90
42479;DHT22;28110;47.080;9.476;2024-01-30T03:58:32;6.40;99.90
42479;DHT22;28110;47.080;9.476;2024-01-30T04:00:57;6.60;99.90
42479;DHT22;28110;47.080;9.476;2024-01-30T04:03:23;6.70;99.90
42479;DHT22;28110;47.080;9.476;2024-01-30T04:05:48;6.80;99.90
42479;DHT22;28110;47.080;9.476;2024-01-30T04:08:14;6.90;99.70
42479;DHT22;28110;47.080;9.476;2024-01-30T04:10:40;7.00;99.30
42479;DHT22;28110;47.080;9.476;2024-01-30T04:13:05;7.10;99.70
42479;DHT22;28110;47.080;9.476;2024-01-30T04:15:31;7.00;99.90
42479;DHT22;28110;47.080;9.476;2024-01-30T04:17:59;6.90;99.90
42479;DHT22;28110;47.080;9.476;2024-01-30T04:20:25;6.80;99.90
42479;DHT22;28110;47.080;9.476;2024-01-30T04:22:51;6.70;99.90
42479;DHT22;28110;47.080;9.476;2024-01-30T04:25:16;6.60;99.90
42479;DHT22;28110;47.080;9.476;2024-01-30T04:27:42;6.50;99.90
42479;DHT22;28110;47.080;9.476;2024-01-30T04:30:08;6.50;99.90
42479;DHT22;28110;47.080;9.476;2024-01-30T04:32:34;6.50;99.90
42479;DHT22;28110;47.080;9.476;2024-01-30T04:35:00;6.60;99.90
42479;DHT22;28110;47.080;9.476;2024-01-30T04:37:26;6.70;99.90
42479;DHT22;28110;47.080;9.476;2024-01-30T04:39:51;6.80;99.60
42479;DHT22;28110;47.080;9.476;2024-01-30T04:42:17;6.80;99.30
42479;DHT22;28110;47.080;9.476;2024-01-30T04:44:43;6.90;99.20
42479;DHT22;28110;47.080;9.476;2024-01-30T04:47:09;6.90;99.10
42479;DHT22;28110;47.080;9.476;2024-01-30T04:49:36;7.00;98.90
42479;DHT22;28110;47.080;9.476;2024-01-30T04:52:02;7.00;98.90
42479;DHT22;28110;47.080;9.476;2024-01-30T04:54:27;7.10;98.50
42479;DHT22;28110;47.080;9.476;2024-01-30T04:56:53;7.10;98.70
42479;DHT22;28110;47.080;9.476;2024-01-30T04:59:18;7.10;98.20
42479;DHT22;28110;47.080;9.476;2024-01-30T05:01:44;7.20;97.90
42479;DHT22;28110;47.080;9.476;2024-01-30T05:04:10;7.30;97.50
42479;DHT22;28110;47.080;9.476;2024-01-30T05:06:36;7.50;96.70
42479;DHT22;28110;47.080;9.476;2024-01-30T05:09:02;7.50;97.20
42479;DHT22;28110;47.080;9.476;2024-01-30T05:11:30;7.60;97.10
42479;DHT22;28110;47.080;9.476;2024-01-30T05:13:55;7.50;97.20
42479;DHT22;28110;47.080;9.476;2024-01-30T05:16:21;7.60;97.00
42479;DHT22;28110;47.080;9.476;2024-01-30T05:18:46;7.60;96.90
42479;DHT22;28110;47.080;9.476;2024-01-30T05:21:12;7.50;96.80
42479;DHT22;28110;47.080;9.476;2024-01-30T05:23:37;7.70;96.40
42479;DHT22;28110;47.080;9.476;2024-01-30T05:26:03;7.70;96.20
42479;DHT22;28110;47.080;9.476;2024-01-30T05:28:29;7.80;95.10
42479;DHT22;28110;47.080;9.476;2024-01-30T05:30:56;7.90;95.60
42479;DHT22;28110;47.080;9.476;2024-01-30T05:33:21;7.80;95.80
42479;DHT22;28110;47.080;9.476;2024-01-30T05:35:47;7.70;96.50
42479;DHT22;28110;47.080;9.476;2024-01-30T05:38:14;7.60;96.90
42479;DHT22;28110;47.080;9.476;2024-01-30T05:40:40;7.50;96.40
42479;DHT22;28110;47.080;9.476;2024-01-30T05:43:05;7.50;96.30
42479;DHT22;28110;47.080;9.476;2024-01-30T05:45:31;7.50;96.80
42479;DHT22;28110;47.080;9.476;2024-01-30T05:47:56;7.50;96.80
42479;DHT22;28110;47.080;9.476;2024-01-30T05:50:22;7.50;96.70
42479;DHT22;28110;47.080;9.476;2024-01-30T05:52:48;7.60;96.30
42479;DHT22;28110;47.080;9.476;2024-01-30T05:55:14;7.60;96.20
42479;DHT22;28110;47.080;9.476;2024-01-30T05:57:40;7.60;96.20
42479;DHT22;28110;47.080;9.476;2024-01-30T06:00:06;7.60;95.40
42479;DHT22;28110;47.080;9.476;2024-01-30T06:02:31;7.80;94.80
42479;DHT22;28110;47.080;9.476;2024-01-30T06:04:57;8.00;94.60
42479;DHT22;28110;47.080;9.476;2024-01-30T06:07:23;8.00;94.60
42479;DHT22;28110;47.080;9.476;2024-01-30T06:09:49;8.10;94.40
42479;DHT22;28110;47.080;9.476;2024-01-30T06:12:14;8.00;94.30
42479;DHT22;28110;47.080;9.476;2024-01-30T06:14:40;8.00;94.70
42479;DHT22;28110;47.080;9.476;2024-01-30T06:17:08;7.90;94.40
42479;DHT22;28110;47.080;9.476;2024-01-30T06:19:33;8.00;94.30
42479;DHT22;28110;47.080;9.476;2024-01-30T06:21:59;8.10;93.80
42479;DHT22;28110;47.080;9.476;2024-01-30T06:24:24;8.10;93.90
42479;DHT22;28110;47.080;9.476;2024-01-30T06:26:50;8.10;94.30
42479;DHT22;28110;47.080;9.476;2024-01-30T06:29:15;8.10;93.90
42479;DHT22;28110;47.080;9.476;2024-01-30T06:31:41;8.00;94.00
42479;DHT22;28110;47.080;9.476;2024-01-30T06:34:08;8.00;93.90
42479;DHT22;28110;47.080;9.476;2024-01-30T06:36:33;8.00;93.70
42479;DHT22;28110;47.080;9.476;2024-01-30T06:39:00;8.10;93.30
42479;DHT22;28110;47.080;9.476;2024-01-30T06:41:25;8.20;93.20
42479;DHT22;28110;47.080;9.476;2024-01-30T06:43:51;8.20;92.60
42479;DHT22;28110;47.080;9.476;2024-01-30T06:46:17;8.20;92.80
42479;DHT22;28110;47.080;9.476;2024-01-30T06:48:42;8.20;93.10
42479;DHT22;28110;47.080;9.476;2024-01-30T06:51:10;8.20;93.20
42479;DHT22;28110;47.080;9.476;2024-01-30T06:53:36;8.10;92.90
42479;DHT22;28110;47.080;9.476;2024-01-30T06:56:01;8.20;92.90
42479;DHT22;28110;47.080;9.476;2024-01-30T06:58:27;8.20;92.60
42479;DHT22;28110;47.080;9.476;2024-01-30T07:00:52;8.20;93.10
42479;DHT22;28110;47.080;9.476;2024-01-30T07:03:18;8.20;92.90
42479;DHT22;28110;47.080;9.476;2024-01-30T07:05:43;8.10;93.10
42479;DHT22;28110;47.080;9.476;2024-01-30T07:08:09;8.10;92.60
42479;DHT22;28110;47.080;9.476;2024-01-30T07:10:34;8.10;93.00
42479;DHT22;28110;47.080;9.476;2024-01-30T07:13:03;8.20;93.00
42479;DHT22;28110;47.080;9.476;2024-01-30T07:15:30;8.10;93.00
42479;DHT22;28110;47.080;9.476;2024-01-30T07:17:56;8.10;92.90
42479;DHT22;28110;47.080;9.476;2024-01-30T07:20:21;8.20;93.10
42479;DHT22;28110;47.080;9.476;2024-01-30T07:22:47;8.20;92.90
42479;DHT22;28110;47.080;9.476;2024-01-30T07:25:13;8.20;92.60
42479;DHT22;28110;47.080;9.476;2024-01-30T07:27:38;8.20;92.90
42479;DHT22;28110;47.080;9.476;2024-01-30T07:30:04;8.10;92.90
42479;DHT22;28110;47.080;9.476;2024-01-30T07:32:30;8.10;93.20
42479;DHT22;28110;47.080;9.476;2024-01-30T07:34:57;8.10;92.90
42479;DHT22;28110;47.080;9.476;2024-01-30T07:37:22;8.10;93.10
42479;DHT22;28110;47.080;9.476;2024-01-30T07:39:48;8.30;92.20
42479;DHT22;28110;47.080;9.476;2024-01-30T07:42:13;8.30;92.40
42479;DHT22;28110;47.080;9.476;2024-01-30T07:44:39;8.20;92.40
42479;DHT22;28110;47.080;9.476;2024-01-30T07:47:05;8.20;92.70
42479;DHT22;28110;47.080;9.476;2024-01-30T07:49:30;8.10;92.90
42479;DHT22;28110;47.080;9.476;2024-01-30T07:51:56;8.10;93.30
42479;DHT22;28110;47.080;9.476;2024-01-30T07:54:21;8.10;93.00
42479;DHT22;28110;47.080;9.476;2024-01-30T07:56:47;8.20;93.00
42479;DHT22;28110;47.080;9.476;2024-01-30T07:59:12;8.20;92.80
42479;DHT22;28110;47.080;9.476;2024-01-30T08:01:38;8.30;92.70
42479;DHT22;28110;47.080;9.476;2024-01-30T08:04:04;8.40;92.60
42479;DHT22;28110;47.080;9.476;2024-01-30T08:06:29;8.40;92.50
42479;DHT22;28110;47.080;9.476;2024-01-30T08:08:55;8.50;92.50
42479;DHT22;28110;47.080;9.476;2024-01-30T08:11:22;8.50;92.00
42479;DHT22;28110;47.080;9.476;2024-01-30T08:13:52;8.50;92.00
42479;DHT22;28110;47.080;9.476;2024-01-30T08:16:17;8.50;92.00
42479;DHT22;28110;47.080;9.476;2024-01-30T08:18:43;8.70;92.00
42479;DHT22;28110;47.080;9.476;2024-01-30T08:21:09;8.60;92.20
42479;DHT22;28110;47.080;9.476;2024-01-30T08:23:34;8.70;92.20
42479;DHT22;28110;47.080;9.476;2024-01-30T08:26:00;8.80;91.30
42479;DHT22;28110;47.080;9.476;2024-01-30T08:28:26;9.00;91.30
42479;DHT22;28110;47.080;9.476;2024-01-30T08:30:52;9.10;91.00
42479;DHT22;28110;47.080;9.476;2024-01-30T08:33:17;9.10;91.30
42479;DHT22;28110;47.080;9.476;2024-01-30T08:35:43;9.20;90.90
42479;DHT22;28110;47.080;9.476;2024-01-30T08:38:08;9.30;90.80
42479;DHT22;28110;47.080;9.476;2024-01-30T08:40:34;9.20;90.90
42479;DHT22;28110;47.080;9.476;2024-01-30T08:43:00;9.20;91.30
42479;DHT22;28110;47.080;9.476;2024-01-30T08:45:25;9.10;91.30
42479;DHT22;28110;47.080;9.476;2024-01-30T08:47:51;9.00;92.00
42479;DHT22;28110;47.080;9.476;2024-01-30T08:50:17;9.00;92.30
42479;DHT22;28110;47.080;9.476;2024-01-30T08:52:42;8.90;92.10
42479;DHT22;28110;47.080;9.476;2024-01-30T08:55:08;8.90;92.30
42479;DHT22;28110;47.080;9.476;2024-01-30T08:57:33;8.90;91.80
42479;DHT22;28110;47.080;9.476;2024-01-30T08:59:59;8.90;91.80
42479;DHT22;28110;47.080;9.476;2024-01-30T09:02:25;9.00;91.90
42479;DHT22;28110;47.080;9.476;2024-01-30T09:04:51;9.00;91.40
42479;DHT22;28110;47.080;9.476;2024-01-30T09:07:16;9.00;91.60
42479;DHT22;28110;47.080;9.476;2024-01-30T09:09:42;9.00;91.40
42479;DHT22;28110;47.080;9.476;2024-01-30T09:12:07;9.10;91.40
42479;DHT22;28110;47.080;9.476;2024-01-30T09:14:38;9.20;91.20
42479;DHT22;28110;47.080;9.476;2024-01-30T09:17:04;9.20;91.00
42479;DHT22;28110;47.080;9.476;2024-01-30T09:19:30;9.20;91.00
42479;DHT22;28110;47.080;9.476;2024-01-30T09:21:56;9.30;90.50
42479;DHT22;28110;47.080;9.476;2024-01-30T09:24:21;9.20;94.30
42479;DHT22;28110;47.080;9.476;2024-01-30T09:26:47;8.70;96.20
42479;DHT22;28110;47.080;9.476;2024-01-30T09:29:12;8.40;97.20
42479;DHT22;28110;47.080;9.476;2024-01-30T09:31:38;8.10;97.80
42479;DHT22;28110;47.080;9.476;2024-01-30T09:34:03;7.80;99.20
42479;DHT22;28110;47.080;9.476;2024-01-30T09:36:29;7.60;99.90
42479;DHT22;28110;47.080;9.476;2024-01-30T09:38:54;7.50;99.90
42479;DHT22;28110;47.080;9.476;2024-01-30T09:41:24;7.40;99.90
42479;DHT22;28110;47.080;9.476;2024-01-30T09:43:50;7.20;99.90
42479;DHT22;28110;47.080;9.476;2024-01-30T09:46:17;6.90;99.90
42479;DHT22;28110;47.080;9.476;2024-01-30T09:48:46;6.80;99.90
42479;DHT22;28110;47.080;9.476;2024-01-30T09:51:14;6.70;99.90
42479;DHT22;28110;47.080;9.476;2024-01-30T09:53:41;6.60;99.90
42479;DHT22;28110;47.080;9.476;2024-01-30T09:56:07;6.50;99.90
42479;DHT22;28110;47.080;9.476;2024-01-30T09:58:33;6.40;99.90
42479;DHT22;28110;47.080;9.476;2024-01-30T10:00:58;6.30;99.90
42479;DHT22;28110;47.080;9.476;2024-01-30T10:03:24;6.20;99.90
42479;DHT22;28110;47.080;9.476;2024-01-30T10:05:51;6.20;99.90
42479;DHT22;28110;47.080;9.476;2024-01-30T10:08:20;6.20;99.90
42479;DHT22;28110;47.080;9.476;2024-01-30T10:10:49;6.30;99.90
42479;DHT22;28110;47.080;9.476;2024-01-30T10:13:15;6.30;99.90
42479;DHT22;28110;47.080;9.476;2024-01-30T10:15:41;6.40;99.90
42479;DHT22;28110;47.080;9.476;2024-01-30T10:18:08;6.40;99.90
42479;DHT22;28110;47.080;9.476;2024-01-30T10:20:35;6.40;99.90
42479;DHT22;28110;47.080;9.476;2024-01-30T10:23:01;6.40;99.90
42479;DHT22;28110;47.080;9.476;2024-01-30T10:25:26;6.40;99.90
42479;DHT22;28110;47.080;9.476;2024-01-30T10:27:53;6.40;99.90
42479;DHT22;28110;47.080;9.476;2024-01-30T10:30:21;6.50;99.90
42479;DHT22;28110;47.080;9.476;2024-01-30T10:32:46;6.50;99.90
42479;DHT22;28110;47.080;9.476;2024-01-30T10:35:12;6.50;99.90
42479;DHT22;28110;47.080;9.476;2024-01-30T10:37:38;6.50;99.90
42479;DHT22;28110;47.080;9.476;2024-01-30T10:40:03;6.60;99.90
42479;DHT22;28110;47.080;9.476;2024-01-30T10:42:32;6.60;99.90
42479;DHT22;28110;47.080;9.476;2024-01-30T10:45:07;6.70;99.90
42479;DHT22;28110;47.080;9.476;2024-01-30T10:47:35;6.70;99.90
42479;DHT22;28110;47.080;9.476;2024-01-30T10:50:02;6.70;99.90
42479;DHT22;28110;47.080;9.476;2024-01-30T10:52:29;6.70;99.90
42479;DHT22;28110;47.080;9.476;2024-01-30T10:54:55;6.70;99.90
42479;DHT22;28110;47.080;9.476;2024-01-30T10:57:27;6.70;99.90
42479;DHT22;28110;47.080;9.476;2024-01-30T11:00:00;6.80;99.90
42479;DHT22;28110;47.080;9.476;2024-01-30T11:02:26;6.90;99.90
42479;DHT22;28110;47.080;9.476;2024-01-30T11:04:58;6.90;99.90
42479;DHT22;28110;47.080;9.476;2024-01-30T11:07:29;6.90;99.90
42479;DHT22;28110;47.080;9.476;2024-01-30T11:12:24;7.00;99.90
42479;DHT22;28110;47.080;9.476;2024-01-30T11:15:09;6.90;99.90
42479;DHT22;28110;47.080;9.476;2024-01-30T11:20:10;6.80;99.90
42479;DHT22;28110;47.080;9.476;2024-01-30T11:22:37;6.70;99.90
42479;DHT22;28110;47.080;9.476;2024-01-30T11:25:02;6.70;99.90
42479;DHT22;28110;47.080;9.476;2024-01-30T11:27:30;6.80;99.90
42479;DHT22;28110;47.080;9.476;2024-01-30T11:30:01;6.90;99.90
42479;DHT22;28110;47.080;9.476;2024-01-30T11:32:28;6.90;99.90
42479;DHT22;28110;47.080;9.476;2024-01-30T11:34:54;7.10;99.90
42479;DHT22;28110;47.080;9.476;2024-01-30T11:37:21;7.00;99.90
42479;DHT22;28110;47.080;9.476;2024-01-30T11:39:51;7.00;99.90
42479;DHT22;28110;47.080;9.476;2024-01-30T11:42:16;7.10;99.90
42479;DHT22;28110;47.080;9.476;2024-01-30T11:44:49;7.10;99.90
42479;DHT22;28110;47.080;9.476;2024-01-30T11:47:16;7.20;99.90
42479;DHT22;28110;47.080;9.476;2024-01-30T11:49:42;7.30;99.90
42479;DHT22;28110;47.080;9.476;2024-01-30T11:52:08;7.30;99.90
42479;DHT22;28110;47.080;9.476;2024-01-30T11:54:34;7.40;99.90
42479;DHT22;28110;47.080;9.476;2024-01-30T11:57:00;7.40;99.90
42479;DHT22;28110;47.080;9.476;2024-01-30T11:59:25;7.40;99.90
42479;DHT22;28110;47.080;9.476;2024-01-30T12:01:52;7.50;99.90
42479;DHT22;28110;47.080;9.476;2024-01-30T12:04:17;7.40;99.90
42479;DHT22;28110;47.080;9.476;2024-01-30T12:06:43;7.50;99.90
42479;DHT22;28110;47.080;9.476;2024-01-30T12:09:09;7.60;99.90
42479;DHT22;28110;47.080;9.476;2024-01-30T12:11:47;7.60;99.90
42479;DHT22;28110;47.080;9.476;2024-01-30T12:14:13;7.60;99.90
42479;DHT22;28110;47.080;9.476;2024-01-30T12:16:39;7.60;99.90
42479;DHT22;28110;47.080;9.476;2024-01-30T12:19:04;7.70;99.90
42479;DHT22;28110;47.080;9.476;2024-01-30T12:21:30;7.70;99.90
42479;DHT22;28110;47.080;9.476;2024-01-30T12:23:57;7.80;99.90
42479;DHT22;28110;47.080;9.476;2024-01-30T12:26:24;7.80;99.90
42479;DHT22;28110;47.080;9.476;2024-01-30T12:28:50;7.90;99.90
42479;DHT22;28110;47.080;9.476;2024-01-30T12:31:16;8.00;99.90
42479;DHT22;28110;47.080;9.476;2024-01-30T12:33:42;8.00;99.90
42479;DHT22;28110;47.080;9.476;2024-01-30T12:36:07;8.00;99.90
42479;DHT22;28110;47.080;9.476;2024-01-30T12:38:33;8.00;99.90
42479;DHT22;28110;47.080;9.476;2024-01-30T12:40:58;8.10;99.90
42479;DHT22;28110;47.080;9.476;2024-01-30T12:43:25;8.10;99.90
42479;DHT22;28110;47.080;9.476;2024-01-30T12:45:52;8.20;99.90
42479;DHT22;28110;47.080;9.476;2024-01-30T12:48:17;8.20;99.90
42479;DHT22;28110;47.080;9.476;2024-01-30T12:50:43;8.30;99.90
42479;DHT22;28110;47.080;9.476;2024-01-30T12:53:08;8.40;99.90
42479;DHT22;28110;47.080;9.476;2024-01-30T12:55:38;8.50;99.90
42479;DHT22;28110;47.080;9.476;2024-01-30T12:58:04;8.50;99.90
42479;DHT22;28110;47.080;9.476;2024-01-30T13:00:29;8.50;99.90
42479;DHT22;28110;47.080;9.476;2024-01-30T13:02:55;8.60;99.90
42479;DHT22;28110;47.080;9.476;2024-01-30T13:05:21;8.50;99.90
42479;DHT22;28110;47.080;9.476;2024-01-30T13:07:46;8.50;99.90
42479;DHT22;28110;47.080;9.476;2024-01-30T13:10:12;8.50;99.90
42479;DHT22;28110;47.080;9.476;2024-01-30T13:12:39;8.50;99.90
42479;DHT22;28110;47.080;9.476;2024-01-30T13:15:05;8.50;99.90
42479;DHT22;28110;47.080;9.476;2024-01-30T13:17:31;8.50;99.90
42479;DHT22;28110;47.080;9.476;2024-01-30T13:19:57;8.50;99.90
42479;DHT22;28110;47.080;9.476;2024-01-30T13:22:23;8.50;99.90
42479;DHT22;28110;47.080;9.476;2024-01-30T13:24:49;8.50;99.90
42479;DHT22;28110;47.080;9.476;2024-01-30T13:27:15;8.50;99.90
42479;DHT22;28110;47.080;9.476;2024-01-30T13:29:41;8.60;99.90
42479;DHT22;28110;47.080;9.476;2024-01-30T13:32:06;8.60;99.90
42479;DHT22;28110;47.080;9.476;2024-01-30T13:34:32;8.70;99.90
42479;DHT22;28110;47.080;9.476;2024-01-30T13:36:58;8.70;99.90
42479;DHT22;28110;47.080;9.476;2024-01-30T13:39:23;8.70;99.90
42479;DHT22;28110;47.080;9.476;2024-01-30T13:41:49;8.80;99.90
42479;DHT22;28110;47.080;9.476;2024-01-30T13:44:15;8.80;99.90
42479;DHT22;28110;47.080;9.476;2024-01-30T13:46:42;8.80;99.90
42479;DHT22;28110;47.080;9.476;2024-01-30T13:49:08;8.80;99.90
42479;DHT22;28110;47.080;9.476;2024-01-30T13:51:34;8.80;99.90
42479;DHT22;28110;47.080;9.476;2024-01-30T13:53:59;8.80;99.90
42479;DHT22;28110;47.080;9.476;2024-01-30T13:56:25;8.80;99.90
42479;DHT22;28110;47.080;9.476;2024-01-30T13:58:52;8.80;99.90
42479;DHT22;28110;47.080;9.476;2024-01-30T14:01:17;8.80;99.90
42479;DHT22;28110;47.080;9.476;2024-01-30T14:03:43;8.80;99.90
42479;DHT22;28110;47.080;9.476;2024-01-30T14:06:09;8.90;99.90
42479;DHT22;28110;47.080;9.476;2024-01-30T14:08:34;8.90;99.90
42479;DHT22;28110;47.080;9.476;2024-01-30T14:11:00;8.90;99.90
42479;DHT22;28110;47.080;9.476;2024-01-30T14:13:25;8.90;99.90
42479;DHT22;28110;47.080;9.476;2024-01-30T14:15:51;9.00;99.90
42479;DHT22;28110;47.080;9.476;2024-01-30T14:18:18;9.00;99.90
42479;DHT22;28110;47.080;9.476;2024-01-30T14:20:43;9.00;99.90
42479;DHT22;28110;47.080;9.476;2024-01-30T14:23:09;9.00;99.90
42479;DHT22;28110;47.080;9.476;2024-01-30T14:25:34;9.00;99.90
42479;DHT22;28110;47.080;9.476;2024-01-30T14:28:00;9.00;99.90
42479;DHT22;28110;47.080;9.476;2024-01-30T14:30:26;9.00;99.90
42479;DHT22;28110;47.080;9.476;2024-01-30T14:32:51;9.00;99.90
42479;DHT22;28110;47.080;9.476;2024-01-30T14:35:17;9.00;99.90
42479;DHT22;28110;47.080;9.476;2024-01-30T14:37:42;9.00;99.90
42479;DHT22;28110;47.080;9.476;2024-01-30T14:40:08;8.90;99.90
42479;DHT22;28110;47.080;9.476;2024-01-30T14:42:34;9.00;99.90
42479;DHT22;28110;47.080;9.476;2024-01-30T14:45:01;8.90;99.90
42479;DHT22;28110;47.080;9.476;2024-01-30T14:47:27;8.80;99.90
42479;DHT22;28110;47.080;9.476;2024-01-30T14:49:52;8.80;99.90
42479;DHT22;28110;47.080;9.476;2024-01-30T14:52:18;8.70;99.90
42479;DHT22;28110;47.080;9.476;2024-01-30T14:54:44;8.70;99.90
42479;DHT22;28110;47.080;9.476;2024-01-30T14:57:09;8.60;99.90
42479;DHT22;28110;47.080;9.476;2024-01-30T14:59:36;8.60;99.90
42479;DHT22;28110;47.080;9.476;2024-01-30T15:02:01;8.50;99.90
42479;DHT22;28110;47.080;9.476;2024-01-30T15:04:27;8.50;99.90
42479;DHT22;28110;47.080;9.476;2024-01-30T15:06:53;8.40;99.90
42479;DHT22;28110;47.080;9.476;2024-01-30T15:09:19;8.30;99.90
42479;DHT22;28110;47.080;9.476;2024-01-30T15:11:46;8.20;99.90
42479;DHT22;28110;47.080;9.476;2024-01-30T15:14:12;8.20;99.90
42479;DHT22;28110;47.080;9.476;2024-01-30T15:16:38;8.20;99.90
42479;DHT22;28110;47.080;9.476;2024-01-30T15:19:04;8.10;99.90
42479;DHT22;28110;47.080;9.476;2024-01-30T15:21:33;8.10;99.90
42479;DHT22;28110;47.080;9.476;2024-01-30T15:23:59;8.00;99.90
42479;DHT22;28110;47.080;9.476;2024-01-30T15:26:24;8.00;99.90
42479;DHT22;28110;47.080;9.476;2024-01-30T15:28:51;8.00;99.90
42479;DHT22;28110;47.080;9.476;2024-01-30T15:31:16;8.00;99.90
42479;DHT22;28110;47.080;9.476;2024-01-30T15:33:42;8.00;99.90
42479;DHT22;28110;47.080;9.476;2024-01-30T15:36:08;8.00;99.90
42479;DHT22;28110;47.080;9.476;2024-01-30T15:38:34;8.00;99.90
42479;DHT22;28110;47.080;9.476;2024-01-30T15:41:00;8.00;99.90
42479;DHT22;28110;47.080;9.476;2024-01-30T15:43:26;7.90;99.90